Time;durP1;ratioP1;P1;durP2;ratioP2;P2;SDS_P1;SDS_P2;PMS_P1;PMS_P2;Temp;Humidity;BMP_temperature;BMP_pressure;BME280_temperature;BME280_humidity;BME280_pressure;Samples;Min_cycle;Max_cycle;Signal;HPM_P1;HPM_P2
2023/01/10 00:00:39;;;;;;;17.63;3.72;;;6.20;99.90;;;;;;4923668;29;20534;-78
2023/01/10 00:03:07;;;;;;;29.45;5.00;;;6.20;99.90;;;;;;4909144;28;20066;-78
2023/01/10 00:05:33;;;;;;;9.70;3.50;;;6.20;99.90;;;;;;4923773;29;20063;-78
2023/01/10 00:08:01;;;;;;;11.68;3.70;;;6.20;99.90;;;;;;4907546;29;20072;-78
2023/01/10 00:10:26;;;;;;;9.98;3.22;;;6.20;99.90;;;;;;4887815;29;20095;-78
2023/01/10 00:15:36;;;;;;;8.02;3.13;;;6.20;99.90;;;;;;4889818;28;20114;-78
2023/01/10 00:18:02;;;;;;;11.73;3.10;;;6.20;99.90;;;;;;4906606;29;20044;-78
2023/01/10 00:20:28;;;;;;;5.53;3.47;;;6.20;99.90;;;;;;4906484;28;20338;-78
2023/01/10 00:22:53;;;;;;;6.65;2.13;;;6.20;99.90;;;;;;4906995;29;20079;-78
2023/01/10 00:25:20;;;;;;;10.95;5.47;;;6.20;99.90;;;;;;4915124;28;20044;-78
2023/01/10 00:27:52;;;;;;;7.22;3.45;;;6.20;99.90;;;;;;4908421;28;20048;-78
2023/01/10 00:30:18;;;;;;;9.57;3.05;;;6.20;99.90;;;;;;4905454;29;20415;-78
2023/01/10 00:32:44;;;;;;;11.07;3.47;;;6.20;99.90;;;;;;4924481;29;20050;-78
2023/01/10 00:35:11;;;;;;;22.23;4.07;;;6.20;99.90;;;;;;4913356;29;20474;-78
2023/01/10 00:37:38;;;;;;;13.38;3.22;;;6.20;99.90;;;;;;4921539;28;20106;-78
2023/01/10 00:40:09;;;;;;;12.15;2.70;;;6.20;99.90;;;;;;4910146;28;20036;-78
2023/01/10 00:45:21;;;;;;;10.13;3.75;;;6.20;99.90;;;;;;4906415;28;20091;-78
2023/01/10 00:47:47;;;;;;;17.08;3.13;;;6.30;99.90;;;;;;4906620;28;20514;-78
2023/01/10 00:50:13;;;;;;;9.95;4.32;;;6.30;99.90;;;;;;4905913;29;20138;-78
2023/01/10 00:52:38;;;;;;;5.68;3.28;;;6.30;99.90;;;;;;4906056;29;20062;-78
2023/01/10 00:55:04;;;;;;;6.93;2.92;;;6.30;99.90;;;;;;4911886;28;20119;-78
2023/01/10 00:57:30;;;;;;;12.13;4.18;;;6.30;99.90;;;;;;4925310;29;20134;-78
2023/01/10 00:59:56;;;;;;;5.20;2.63;;;6.30;99.90;;;;;;4920467;29;20444;-78
2023/01/10 01:02:21;;;;;;;19.75;4.43;;;6.30;99.90;;;;;;4893676;29;20056;-78
2023/01/10 01:04:47;;;;;;;23.42;4.00;;;6.40;99.90;;;;;;4913859;29;20388;-78
2023/01/10 01:07:12;;;;;;;7.18;3.20;;;6.40;99.90;;;;;;4915513;29;20046;-78
2023/01/10 01:10:25;;;;;;;6.55;2.60;;;6.40;99.90;;;;;;4923651;29;20059;-78
2023/01/10 01:12:24;;;;;;;11.50;2.92;;;6.40;99.90;;;;;;4890494;28;20087;-78
2023/01/10 01:14:49;;;;;;;5.70;2.10;;;6.50;99.90;;;;;;4899237;29;20048;-79
2023/01/10 01:17:16;;;;;;;7.63;2.38;;;6.40;99.90;;;;;;4905804;29;20455;-78
2023/01/10 01:19:41;;;;;;;5.28;2.30;;;6.40;99.90;;;;;;4888760;28;20127;-78
2023/01/10 01:22:07;;;;;;;4.40;2.55;;;6.40;99.90;;;;;;4904252;29;20120;-78
2023/01/10 01:24:33;;;;;;;6.07;1.40;;;6.40;99.90;;;;;;4906910;29;20228;-78
2023/01/10 01:26:58;;;;;;;8.25;2.95;;;6.40;99.90;;;;;;4914931;29;20482;-78
2023/01/10 01:29:24;;;;;;;4.35;1.52;;;6.40;99.90;;;;;;4901177;29;20048;-78
2023/01/10 01:31:49;;;;;;;8.10;2.28;;;6.40;99.90;;;;;;4908440;29;20047;-78
2023/01/10 01:34:15;;;;;;;4.30;1.48;;;6.30;99.90;;;;;;4906306;29;20044;-78
2023/01/10 01:36:41;;;;;;;2.42;1.00;;;6.30;99.90;;;;;;4923667;29;20114;-78
2023/01/10 01:39:06;;;;;;;4.13;1.70;;;6.30;99.90;;;;;;4923410;29;20506;-78
2023/01/10 01:44:17;;;;;;;4.15;1.88;;;6.30;99.90;;;;;;4905874;28;20060;-78
2023/01/10 01:46:59;;;;;;;4.22;1.35;;;6.30;99.90;;;;;;4912415;29;20040;-78
2023/01/10 01:49:25;;;;;;;8.80;2.55;;;6.30;99.90;;;;;;4924323;29;20058;-78
2023/01/10 01:52:01;;;;;;;4.93;2.25;;;6.30;99.90;;;;;;4908093;29;20045;-78
2023/01/10 01:54:28;;;;;;;4.13;1.92;;;6.30;99.90;;;;;;4905645;29;20534;-78
2023/01/10 01:56:58;;;;;;;6.10;2.03;;;6.30;99.90;;;;;;4923882;29;20568;-78
2023/01/10 01:59:33;;;;;;;8.88;2.60;;;6.30;99.90;;;;;;4911131;29;20039;-78
2023/01/10 02:02:20;;;;;;;7.95;2.65;;;6.30;99.90;;;;;;4922240;29;20040;-78
2023/01/10 02:05:09;;;;;;;15.68;4.03;;;6.30;99.90;;;;;;4894643;29;20063;-78
2023/01/10 02:07:39;;;;;;;12.05;3.67;;;6.30;99.90;;;;;;4908285;29;20127;-78
2023/01/10 02:10:11;;;;;;;8.25;3.10;;;6.40;99.90;;;;;;4922787;29;20040;-78
2023/01/10 02:12:37;;;;;;;7.03;3.17;;;6.40;99.90;;;;;;4924101;29;20047;-78
2023/01/10 02:15:03;;;;;;;8.70;2.00;;;6.40;99.90;;;;;;4923828;29;20319;-78
2023/01/10 02:17:29;;;;;;;18.38;3.05;;;6.40;99.90;;;;;;4923835;28;20079;-78
2023/01/10 02:20:07;;;;;;;6.97;2.65;;;6.40;99.90;;;;;;4922115;28;20554;-78
2023/01/10 02:23:11;;;;;;;11.00;2.22;;;6.30;99.90;;;;;;4890119;29;20518;-78
2023/01/10 02:25:55;;;;;;;19.75;3.90;;;6.40;99.90;;;;;;4897177;29;20538;-78
2023/01/10 02:28:46;;;;;;;4.70;2.03;;;6.30;99.90;;;;;;4889869;29;20055;-78
2023/01/10 02:31:31;;;;;;;5.15;2.60;;;6.40;99.90;;;;;;4911027;29;20258;-78
2023/01/10 02:34:09;;;;;;;13.70;3.90;;;6.30;99.90;;;;;;4907994;28;20119;-78
2023/01/10 02:36:56;;;;;;;9.38;3.63;;;6.40;99.90;;;;;;4920390;28;20043;-78
2023/01/10 02:39:44;;;;;;;5.47;1.88;;;6.40;99.90;;;;;;4922442;29;20055;-78
2023/01/10 02:42:22;;;;;;;11.55;3.28;;;6.40;99.90;;;;;;4918575;29;20163;-78
2023/01/10 02:45:03;;;;;;;7.18;3.38;;;6.40;99.90;;;;;;4888223;28;20058;-78
2023/01/10 02:47:39;;;;;;;5.95;2.28;;;6.40;99.90;;;;;;4904833;29;20032;-78
2023/01/10 02:50:35;;;;;;;14.43;2.78;;;6.40;99.90;;;;;;4905784;29;20079;-78
2023/01/10 02:53:06;;;;;;;13.65;2.20;;;6.40;99.90;;;;;;4914183;29;20300;-78
2023/01/10 02:56:03;;;;;;;6.33;2.57;;;6.40;99.90;;;;;;4922864;29;20039;-78
2023/01/10 02:58:57;;;;;;;19.73;4.90;;;6.40;99.90;;;;;;4897540;29;20310;-78
2023/01/10 03:01:55;;;;;;;12.45;4.03;;;6.40;99.90;;;;;;4911986;29;20795;-78
2023/01/10 03:04:33;;;;;;;9.77;3.28;;;6.40;99.90;;;;;;4896907;29;20079;-78
2023/01/10 03:07:07;;;;;;;9.50;2.85;;;6.40;99.90;;;;;;4916482;29;20138;-78
2023/01/10 03:10:25;;;;;;;23.65;4.82;;;6.40;99.90;;;;;;4922300;29;20052;-78
2023/01/10 03:12:59;;;;;;;11.23;3.95;;;6.40;99.90;;;;;;4866611;29;20075;-78
2023/01/10 03:15:30;;;;;;;25.70;4.15;;;6.40;99.90;;;;;;4923261;29;20044;-78
2023/01/10 03:17:59;;;;;;;20.60;4.68;;;6.40;99.90;;;;;;4923186;29;20052;-78
2023/01/10 03:20:27;;;;;;;19.73;3.53;;;6.40;99.90;;;;;;4922552;29;20047;-78
2023/01/10 03:22:55;;;;;;;11.18;3.45;;;6.40;99.90;;;;;;4913584;29;20048;-79
2023/01/10 03:25:25;;;;;;;15.50;4.13;;;6.40;99.90;;;;;;4916571;28;20047;-78
2023/01/10 03:28:05;;;;;;;20.48;3.85;;;6.40;99.90;;;;;;4909518;29;20580;-78
2023/01/10 03:30:47;;;;;;;16.73;4.32;;;6.40;99.90;;;;;;4910424;29;20426;-78
2023/01/10 03:33:17;;;;;;;18.98;5.18;;;6.40;99.90;;;;;;4908892;28;20439;-78
2023/01/10 03:36:20;;;;;;;20.88;4.32;;;6.40;99.90;;;;;;4923477;29;20079;-78
2023/01/10 03:38:58;;;;;;;17.02;5.53;;;6.40;99.90;;;;;;4900033;29;20102;-78
2023/01/10 03:41:41;;;;;;;11.10;3.53;;;6.40;99.90;;;;;;4890290;28;20119;-78
2023/01/10 03:47:10;;;;;;;21.67;4.75;;;6.40;99.90;;;;;;4918543;28;20052;-78
2023/01/10 03:49:39;;;;;;;16.77;4.90;;;6.40;99.90;;;;;;4908140;28;20127;-78
2023/01/10 03:52:07;;;;;;;13.43;3.83;;;6.40;99.90;;;;;;4917409;29;20513;-78
2023/01/10 03:54:33;;;;;;;12.60;3.42;;;6.40;99.90;;;;;;4905753;28;20486;-78
2023/01/10 03:56:58;;;;;;;9.32;3.75;;;6.40;99.90;;;;;;4906834;29;20043;-78
2023/01/10 03:59:28;;;;;;;10.77;3.88;;;6.40;99.90;;;;;;4909752;28;20066;-78
2023/01/10 04:01:55;;;;;;;17.80;4.45;;;6.50;99.90;;;;;;4923582;28;20035;-78
2023/01/10 04:04:20;;;;;;;17.63;3.17;;;6.50;99.90;;;;;;4924625;28;20078;-78
2023/01/10 04:06:46;;;;;;;14.88;4.93;;;6.50;99.90;;;;;;4915718;29;20040;-78
2023/01/10 04:09:12;;;;;;;14.10;3.85;;;6.50;99.90;;;;;;4905392;29;20052;-78
2023/01/10 04:11:38;;;;;;;11.15;3.60;;;6.50;99.90;;;;;;4907205;29;20044;-78
2023/01/10 04:14:04;;;;;;;6.55;3.42;;;6.50;99.90;;;;;;4906021;29;20040;-78
2023/01/10 04:16:29;;;;;;;7.43;3.25;;;6.50;99.90;;;;;;4906763;29;20506;-78
2023/01/10 04:18:55;;;;;;;5.18;2.15;;;6.50;99.90;;;;;;4906626;28;20039;-78
2023/01/10 04:21:21;;;;;;;7.07;3.25;;;6.40;99.90;;;;;;4906847;29;20058;-78
2023/01/10 04:23:46;;;;;;;5.72;3.42;;;6.50;99.90;;;;;;4906247;28;20044;-78
2023/01/10 04:26:12;;;;;;;6.85;3.17;;;6.40;99.90;;;;;;4906306;29;20051;-78
2023/01/10 04:28:38;;;;;;;6.60;4.13;;;6.50;99.90;;;;;;4906980;29;20099;-78
2023/01/10 04:31:03;;;;;;;12.07;4.25;;;6.50;99.90;;;;;;4906076;29;20090;-78
2023/01/10 04:33:29;;;;;;;17.52;4.72;;;6.40;99.90;;;;;;4910696;29;20051;-78
2023/01/10 04:35:55;;;;;;;31.38;4.85;;;6.50;99.90;;;;;;4924982;29;20043;-78
2023/01/10 04:38:21;;;;;;;8.25;3.53;;;6.50;99.90;;;;;;4924160;28;20571;-78
2023/01/10 04:40:54;;;;;;;7.45;3.05;;;6.50;99.90;;;;;;4991573;28;20048;-78
2023/01/10 04:43:21;;;;;;;27.38;4.10;;;6.50;99.90;;;;;;4925268;28;20055;-78
2023/01/10 04:45:46;;;;;;;8.98;3.70;;;6.50;99.90;;;;;;4925270;29;20105;-78
2023/01/10 04:48:12;;;;;;;7.40;3.22;;;6.50;99.90;;;;;;4924998;29;20510;-78
2023/01/10 04:50:37;;;;;;;8.15;2.80;;;6.50;99.90;;;;;;4925047;29;20040;-78
2023/01/10 04:53:03;;;;;;;4.78;2.72;;;6.60;99.90;;;;;;4922284;29;20071;-78
2023/01/10 04:55:29;;;;;;;9.13;4.20;;;6.50;99.90;;;;;;4904398;29;20105;-78
2023/01/10 04:57:54;;;;;;;8.55;2.38;;;6.60;99.90;;;;;;4905368;29;20139;-78
2023/01/10 05:00:20;;;;;;;7.15;2.10;;;6.50;99.90;;;;;;4917704;29;20039;-78
2023/01/10 05:02:45;;;;;;;3.97;2.22;;;6.50;99.90;;;;;;4925180;29;20082;-78
2023/01/10 05:05:12;;;;;;;9.45;3.33;;;6.50;99.90;;;;;;4970787;28;20056;-78
2023/01/10 05:07:39;;;;;;;5.68;2.97;;;6.50;99.90;;;;;;4908953;29;20106;-78
2023/01/10 05:10:06;;;;;;;6.00;3.33;;;6.50;99.90;;;;;;4905604;28;20087;-78
2023/01/10 05:12:32;;;;;;;14.43;3.03;;;6.60;99.90;;;;;;4906470;28;20091;-78
2023/01/10 05:14:58;;;;;;;9.48;2.65;;;6.50;99.90;;;;;;4888785;28;20075;-78
2023/01/10 05:17:24;;;;;;;28.35;2.35;;;6.50;99.90;;;;;;4905749;28;20048;-78
2023/01/10 05:19:49;;;;;;;8.13;3.05;;;6.60;99.90;;;;;;4905678;29;20495;-78
2023/01/10 05:22:15;;;;;;;7.72;2.38;;;6.50;99.90;;;;;;4906139;29;20123;-78
2023/01/10 05:24:40;;;;;;;2.85;1.25;;;6.50;99.90;;;;;;4903642;29;20051;-78
2023/01/10 05:27:06;;;;;;;5.47;1.92;;;6.50;99.90;;;;;;4905306;29;20083;-78
2023/01/10 05:29:33;;;;;;;8.88;2.38;;;6.50;99.90;;;;;;4905456;29;20055;-78
2023/01/10 05:31:58;;;;;;;8.75;3.83;;;6.50;99.90;;;;;;4905519;29;20076;-79
2023/01/10 05:34:24;;;;;;;4.90;2.75;;;6.40;99.90;;;;;;4905456;29;20091;-78
2023/01/10 05:36:50;;;;;;;9.50;2.97;;;6.50;99.90;;;;;;4909252;29;20048;-78
2023/01/10 05:39:15;;;;;;;9.07;3.05;;;6.50;99.90;;;;;;4904484;29;20048;-78
2023/01/10 05:41:41;;;;;;;5.47;2.80;;;6.50;99.90;;;;;;4916808;29;20438;-78
2023/01/10 05:44:07;;;;;;;10.50;2.72;;;6.40;99.90;;;;;;4893932;29;20047;-78
2023/01/10 05:46:33;;;;;;;14.35;2.67;;;6.40;99.90;;;;;;4906811;29;20044;-78
2023/01/10 05:48:59;;;;;;;11.02;3.05;;;6.40;99.90;;;;;;4912585;29;20044;-78
2023/01/10 05:51:25;;;;;;;9.20;3.08;;;6.40;99.90;;;;;;4906137;29;20537;-78
2023/01/10 05:53:50;;;;;;;7.10;3.38;;;6.30;99.90;;;;;;4906311;29;20126;-78
2023/01/10 05:56:16;;;;;;;10.70;3.00;;;6.30;99.90;;;;;;4907382;29;20102;-77
2023/01/10 05:58:42;;;;;;;5.47;3.05;;;6.30;99.90;;;;;;4915307;29;20051;-77
2023/01/10 06:01:08;;;;;;;17.65;2.53;;;6.20;99.90;;;;;;4909194;29;20043;-77
2023/01/10 06:03:34;;;;;;;7.50;2.88;;;6.10;99.90;;;;;;4911001;28;20049;-77
2023/01/10 06:06:02;;;;;;;12.38;2.00;;;6.10;99.90;;;;;;4905866;29;20056;-78
2023/01/10 06:08:27;;;;;;;10.27;3.30;;;6.10;99.90;;;;;;4905096;29;20122;-77
2023/01/10 06:10:53;;;;;;;6.00;2.90;;;6.10;99.90;;;;;;4908660;29;20068;-79
2023/01/10 06:13:18;;;;;;;8.75;3.35;;;6.00;99.90;;;;;;4897354;29;20162;-78
2023/01/10 06:15:44;;;;;;;12.25;2.83;;;6.00;99.90;;;;;;4925009;29;20039;-77
2023/01/10 06:18:10;;;;;;;12.73;2.50;;;6.00;99.90;;;;;;4919338;28;20379;-77
2023/01/10 06:20:35;;;;;;;8.57;3.38;;;6.00;99.90;;;;;;4906398;29;20052;-78
2023/01/10 06:23:03;;;;;;;17.65;5.63;;;5.90;99.90;;;;;;4904553;29;20127;-78
2023/01/10 06:25:34;;;;;;;16.30;5.85;;;5.90;99.90;;;;;;4906489;29;20057;-78
2023/01/10 06:28:00;;;;;;;19.98;4.35;;;5.90;99.90;;;;;;4906632;29;20059;-78
2023/01/10 06:30:26;;;;;;;13.73;4.57;;;6.00;99.90;;;;;;4915401;29;20027;-77
2023/01/10 06:32:51;;;;;;;21.65;6.97;;;6.00;99.90;;;;;;4910223;29;20151;-78
2023/01/10 06:35:17;;;;;;;14.95;4.53;;;6.00;99.90;;;;;;4905592;28;20592;-77
2023/01/10 06:37:43;;;;;;;16.45;4.53;;;6.00;99.90;;;;;;4904077;29;20052;-78
2023/01/10 06:40:09;;;;;;;9.00;4.15;;;6.00;99.90;;;;;;4907219;29;20336;-77
2023/01/10 06:42:35;;;;;;;15.50;4.78;;;6.00;99.90;;;;;;4913436;29;20050;-79
2023/01/10 06:45:01;;;;;;;24.65;7.00;;;6.00;99.90;;;;;;4900967;29;20128;-79
2023/01/10 06:47:26;;;;;;;15.88;5.32;;;6.00;99.90;;;;;;4909601;29;20044;-79
2023/01/10 06:49:52;;;;;;;17.10;5.53;;;6.00;99.90;;;;;;4909359;29;20502;-77
2023/01/10 06:52:18;;;;;;;17.10;4.50;;;6.10;99.90;;;;;;4893623;29;20188;-80
2023/01/10 06:54:43;;;;;;;14.23;4.90;;;6.00;99.90;;;;;;4908774;28;20312;-79
2023/01/10 06:57:09;;;;;;;35.85;5.15;;;6.10;99.90;;;;;;4904034;29;20410;-78
2023/01/10 06:59:35;;;;;;;14.07;5.30;;;6.10;99.90;;;;;;4909859;29;20052;-79
2023/01/10 07:02:00;;;;;;;30.13;6.55;;;6.10;99.90;;;;;;4887153;29;20040;-79
2023/01/10 07:04:26;;;;;;;12.77;4.53;;;6.20;99.90;;;;;;4908374;29;20571;-79
2023/01/10 07:06:52;;;;;;;29.55;6.45;;;6.10;99.90;;;;;;4890568;29;20123;-79
2023/01/10 07:09:17;;;;;;;17.70;6.50;;;6.20;99.90;;;;;;4912170;29;20498;-79
2023/01/10 07:11:43;;;;;;;17.90;5.30;;;6.20;99.90;;;;;;4926330;29;20047;-78
2023/01/10 07:14:09;;;;;;;17.05;4.65;;;6.20;99.90;;;;;;4926165;29;20052;-78
2023/01/10 07:16:34;;;;;;;12.13;5.55;;;6.30;99.90;;;;;;4914984;29;20036;-78
2023/01/10 07:19:00;;;;;;;32.38;6.47;;;6.30;99.90;;;;;;4926496;29;20075;-78
2023/01/10 07:21:26;;;;;;;29.13;6.10;;;6.30;99.90;;;;;;4924801;28;20048;-78
2023/01/10 07:23:51;;;;;;;14.68;5.75;;;6.30;99.90;;;;;;4908127;29;20044;-78
2023/01/10 07:26:18;;;;;;;16.98;7.03;;;6.30;99.90;;;;;;4912765;29;20036;-82
2023/01/10 07:28:52;;;;;;;11.95;4.95;;;6.30;99.90;;;;;;4890575;28;20042;-78
2023/01/10 07:31:19;;;;;;;14.50;5.97;;;6.30;99.90;;;;;;4897212;29;20086;-78
2023/01/10 07:33:45;;;;;;;18.10;6.75;;;6.30;99.90;;;;;;4905071;29;20040;-78
2023/01/10 07:36:11;;;;;;;17.88;6.55;;;6.40;99.90;;;;;;4908911;29;20121;-78
2023/01/10 07:38:37;;;;;;;17.23;4.80;;;6.40;99.90;;;;;;4924426;28;20071;-78
2023/01/10 07:41:03;;;;;;;14.13;5.32;;;6.30;99.90;;;;;;4925721;29;20490;-78
2023/01/10 07:43:29;;;;;;;22.02;5.93;;;6.40;99.90;;;;;;4925800;28;20300;-78
2023/01/10 07:46:03;;;;;;;21.85;4.55;;;6.30;99.90;;;;;;4925179;29;20051;-78
2023/01/10 07:48:28;;;;;;;25.20;6.70;;;6.30;99.90;;;;;;4908585;28;20497;-78
2023/01/10 07:50:56;;;;;;;11.82;5.03;;;6.30;99.90;;;;;;4925214;29;20094;-78
2023/01/10 07:53:22;;;;;;;16.85;4.90;;;6.30;99.90;;;;;;4924532;29;20044;-79
2023/01/10 07:55:47;;;;;;;21.15;5.72;;;6.30;99.90;;;;;;4925664;29;20059;-77
2023/01/10 07:58:13;;;;;;;30.05;6.18;;;6.20;99.90;;;;;;4925320;28;20394;-78
2023/01/10 08:00:39;;;;;;;14.07;4.28;;;6.20;99.90;;;;;;4924754;28;20093;-78
2023/01/10 08:03:05;;;;;;;20.65;5.13;;;6.20;99.90;;;;;;4908307;28;21009;-79
2023/01/10 08:05:31;;;;;;;12.88;4.00;;;6.10;99.90;;;;;;4907986;28;20272;-79
2023/01/10 08:08:06;;;;;;;25.35;4.78;;;6.10;99.90;;;;;;4923237;29;20090;-77
2023/01/10 08:10:33;;;;;;;25.90;5.25;;;6.10;99.90;;;;;;4907548;28;20047;-78
2023/01/10 08:12:58;;;;;;;12.43;4.25;;;6.00;99.90;;;;;;4924977;29;20040;-78
2023/01/10 08:15:24;;;;;;;12.73;4.13;;;6.00;99.90;;;;;;4907719;29;20089;-78
2023/01/10 08:17:49;;;;;;;17.73;6.22;;;5.90;99.90;;;;;;4924599;29;20086;-78
2023/01/10 08:20:15;;;;;;;15.60;5.72;;;5.90;99.90;;;;;;4925035;29;20090;-77
2023/01/10 08:22:41;;;;;;;15.18;6.22;;;5.90;99.90;;;;;;4922733;28;20039;-78
2023/01/10 08:25:07;;;;;;;13.30;4.43;;;5.90;99.90;;;;;;4923568;29;20051;-78
2023/01/10 08:27:32;;;;;;;13.57;4.38;;;5.90;99.90;;;;;;4914083;29;20040;-79
2023/01/10 08:29:58;;;;;;;14.32;4.55;;;5.80;99.90;;;;;;4905379;29;20040;-77
2023/01/10 08:32:24;;;;;;;8.27;3.22;;;5.80;99.90;;;;;;4905846;29;20043;-78
2023/01/10 08:34:49;;;;;;;27.08;5.15;;;5.80;99.90;;;;;;4905140;29;20051;-78
2023/01/10 08:37:15;;;;;;;9.77;4.10;;;5.80;99.90;;;;;;4905398;29;20042;-77
2023/01/10 08:39:40;;;;;;;9.48;5.07;;;5.80;99.90;;;;;;4905699;29;20214;-79
2023/01/10 08:42:06;;;;;;;9.05;2.90;;;5.80;99.90;;;;;;4905917;29;20126;-78
2023/01/10 08:44:32;;;;;;;22.02;3.80;;;5.80;99.90;;;;;;4905157;29;20154;-78
2023/01/10 08:46:58;;;;;;;13.40;5.35;;;5.80;99.90;;;;;;4888657;29;20447;-78
2023/01/10 08:49:23;;;;;;;9.93;3.80;;;5.90;99.90;;;;;;4905337;29;20139;-78
2023/01/10 08:51:49;;;;;;;21.35;5.28;;;5.90;99.90;;;;;;4902790;29;20048;-78
2023/01/10 08:54:14;;;;;;;20.73;4.40;;;5.90;99.90;;;;;;4906206;29;20044;-77
2023/01/10 08:56:40;;;;;;;20.10;5.35;;;6.00;99.90;;;;;;4888083;29;20051;-78
2023/01/10 08:59:06;;;;;;;9.80;3.83;;;6.00;99.90;;;;;;4905296;29;20091;-78
2023/01/10 09:01:32;;;;;;;9.25;4.15;;;6.00;99.90;;;;;;4888060;29;20360;-79
2023/01/10 09:03:58;;;;;;;14.45;5.93;;;6.10;99.90;;;;;;4904803;29;20458;-78
2023/01/10 09:06:24;;;;;;;21.92;4.72;;;6.10;99.90;;;;;;4905426;29;20087;-79
2023/01/10 09:08:50;;;;;;;10.13;3.42;;;6.10;99.90;;;;;;4904079;28;20170;-79
2023/01/10 09:11:16;;;;;;;22.23;5.38;;;6.10;99.90;;;;;;4905658;29;20040;-78
2023/01/10 09:13:41;;;;;;;13.13;5.53;;;6.10;99.90;;;;;;4905081;29;20075;-78
2023/01/10 09:16:08;;;;;;;11.32;3.38;;;6.10;99.90;;;;;;4904763;29;20036;-78
2023/01/10 09:18:33;;;;;;;7.82;4.22;;;6.20;99.90;;;;;;4905495;29;20044;-78
2023/01/10 09:21:00;;;;;;;12.43;4.65;;;6.10;99.90;;;;;;4903384;28;20349;-78
2023/01/10 09:23:26;;;;;;;10.38;4.20;;;6.20;99.90;;;;;;4904413;28;20044;-77
2023/01/10 09:25:54;;;;;;;17.70;5.00;;;6.20;99.90;;;;;;4887357;29;20122;-79
2023/01/10 09:28:21;;;;;;;24.00;5.32;;;6.20;99.90;;;;;;4904735;28;20317;-79
2023/01/10 09:30:46;;;;;;;17.52;4.55;;;6.30;99.90;;;;;;4888160;29;20044;-78
2023/01/10 09:33:13;;;;;;;16.08;4.88;;;6.30;99.90;;;;;;4904378;29;20050;-78
2023/01/10 09:35:40;;;;;;;21.25;4.22;;;6.30;99.90;;;;;;4888022;29;20044;-77
2023/01/10 09:38:10;;;;;;;9.35;3.47;;;6.30;99.90;;;;;;4886929;29;20059;-78
2023/01/10 09:40:54;;;;;;;6.07;3.90;;;6.40;99.90;;;;;;4905343;29;20041;-79
2023/01/10 09:43:48;;;;;;;26.02;3.58;;;6.40;99.90;;;;;;4904696;29;20075;-77
2023/01/10 09:46:55;;;;;;;14.45;5.03;;;6.40;99.90;;;;;;4903790;29;20095;-79
2023/01/10 09:49:53;;;;;;;9.27;3.53;;;6.40;99.90;;;;;;4887364;29;20052;-78
2023/01/10 09:52:26;;;;;;;22.05;3.80;;;6.50;99.90;;;;;;4903781;29;20044;-78
2023/01/10 09:54:56;;;;;;;8.98;3.05;;;6.40;99.90;;;;;;4887302;29;20048;-77
2023/01/10 09:57:22;;;;;;;12.70;4.70;;;6.50;99.90;;;;;;4904645;29;20047;-78
2023/01/10 09:59:50;;;;;;;7.07;3.22;;;6.50;99.90;;;;;;4888229;29;20048;-79
2023/01/10 10:02:28;;;;;;;18.00;4.55;;;6.50;99.90;;;;;;4887014;29;20151;-78
2023/01/10 10:05:03;;;;;;;8.68;3.72;;;6.50;99.90;;;;;;4887426;29;20406;-78
2023/01/10 10:07:29;;;;;;;8.98;3.75;;;6.60;99.90;;;;;;4903647;29;20059;-78
2023/01/10 10:09:54;;;;;;;16.58;5.20;;;6.60;99.90;;;;;;4904004;29;20435;-78
2023/01/10 10:12:26;;;;;;;13.40;4.07;;;6.60;99.90;;;;;;4903972;29;20044;-78
2023/01/10 10:15:29;;;;;;;11.02;3.58;;;6.60;99.90;;;;;;4903996;29;20143;-78
2023/01/10 10:18:12;;;;;;;12.23;4.05;;;6.70;99.90;;;;;;4894756;29;20130;-78
2023/01/10 10:20:49;;;;;;;18.05;2.97;;;6.70;99.90;;;;;;4904282;29;20052;-78
2023/01/10 10:23:29;;;;;;;12.18;4.53;;;6.70;99.90;;;;;;4886598;29;20445;-77
2023/01/10 10:26:15;;;;;;;15.45;5.32;;;6.70;99.90;;;;;;4903907;29;20036;-78
2023/01/10 10:28:46;;;;;;;13.90;5.53;;;6.70;99.90;;;;;;4885413;28;20044;-79
2023/01/10 10:31:30;;;;;;;11.93;4.20;;;6.80;99.90;;;;;;4884404;29;20749;-78
2023/01/10 10:34:23;;;;;;;9.88;5.00;;;6.70;99.90;;;;;;4914492;29;20055;-78
2023/01/10 10:36:56;;;;;;;19.05;4.38;;;6.80;99.90;;;;;;4898057;28;20036;-78
2023/01/10 10:39:37;;;;;;;10.43;4.78;;;6.80;99.90;;;;;;4902594;28;20460;-78
2023/01/10 10:42:05;;;;;;;15.93;6.22;;;6.80;99.90;;;;;;4906283;28;20051;-78
2023/01/10 10:44:43;;;;;;;13.45;4.20;;;6.80;99.90;;;;;;4922766;29;20119;-77
2023/01/10 10:47:17;;;;;;;33.72;6.97;;;6.80;99.90;;;;;;4922649;28;20709;-78
2023/01/10 10:50:07;;;;;;;12.45;5.47;;;6.80;99.90;;;;;;4911784;29;20052;-78
2023/01/10 10:52:35;;;;;;;12.15;6.20;;;6.90;99.90;;;;;;4904163;29;20075;-78
2023/01/10 10:55:03;;;;;;;32.97;5.43;;;6.90;99.90;;;;;;4904803;28;20044;-77
2023/01/10 10:57:33;;;;;;;21.30;4.65;;;6.90;99.90;;;;;;4903865;28;20300;-78
2023/01/10 11:00:01;;;;;;;14.27;4.22;;;6.90;99.90;;;;;;4903930;29;20380;-78
2023/01/10 11:02:30;;;;;;;18.42;4.15;;;6.90;99.90;;;;;;4903448;28;20123;-77
2023/01/10 11:05:00;;;;;;;21.17;5.07;;;6.90;99.90;;;;;;4893791;29;20072;-78
2023/01/10 11:07:31;;;;;;;18.45;4.78;;;6.90;99.90;;;;;;4903517;29;20248;-78
2023/01/10 11:12:46;;;;;;;19.08;5.32;;;6.90;99.90;;;;;;4914430;29;20066;-78
2023/01/10 11:15:42;;;;;;;13.48;6.57;;;6.90;99.90;;;;;;4905553;29;20123;-78
2023/01/10 11:18:19;;;;;;;17.88;5.72;;;6.90;99.90;;;;;;4903639;29;20556;-78
2023/01/10 11:20:57;;;;;;;26.85;6.90;;;6.90;99.90;;;;;;4890419;28;20052;-78
2023/01/10 11:23:49;;;;;;;18.60;5.72;;;6.90;99.90;;;;;;4886050;28;20052;-78
2023/01/10 11:26:29;;;;;;;13.90;5.45;;;6.90;99.90;;;;;;4904576;28;20046;-77
2023/01/10 11:29:18;;;;;;;17.77;5.93;;;6.90;99.90;;;;;;4903261;29;20048;-78
2023/01/10 11:31:45;;;;;;;19.83;6.72;;;6.90;99.90;;;;;;4908611;29;20265;-78
2023/01/10 11:34:31;;;;;;;10.30;4.88;;;6.90;99.90;;;;;;4911020;29;20735;-77
2023/01/10 11:37:00;;;;;;;18.60;5.68;;;6.90;99.90;;;;;;4885930;29;20375;-76
2023/01/10 11:39:27;;;;;;;24.58;6.15;;;6.90;99.90;;;;;;4905257;29;20090;-78
2023/01/10 11:41:54;;;;;;;13.10;4.25;;;6.90;99.90;;;;;;4955210;28;20677;-78
2023/01/10 11:44:25;;;;;;;19.92;6.78;;;6.90;99.90;;;;;;4895499;28;20048;-78
2023/01/10 11:47:02;;;;;;;14.43;4.85;;;6.90;99.90;;;;;;4986353;28;20054;-78
2023/01/10 11:49:36;;;;;;;15.02;5.00;;;6.90;99.90;;;;;;4986983;28;20067;-77
2023/01/10 11:52:25;;;;;;;12.30;6.30;;;6.90;99.90;;;;;;4905720;29;20036;-75
2023/01/10 11:54:53;;;;;;;16.17;5.40;;;6.90;99.90;;;;;;4924418;28;20052;-75
2023/01/10 11:57:24;;;;;;;15.80;4.95;;;6.80;99.90;;;;;;4906775;29;20040;-76
2023/01/10 11:59:56;;;;;;;18.40;5.20;;;6.90;99.90;;;;;;4902045;28;20430;-76
2023/01/10 12:02:29;;;;;;;13.98;6.85;;;6.80;99.90;;;;;;4975632;28;20043;-76
2023/01/10 12:04:58;;;;;;;14.98;4.20;;;6.80;99.90;;;;;;4907652;29;20054;-75
2023/01/10 12:07:24;;;;;;;18.63;6.00;;;6.80;99.90;;;;;;4912020;29;20499;-75
2023/01/10 12:09:55;;;;;;;15.20;4.80;;;6.80;99.90;;;;;;4907845;29;20047;-77
2023/01/10 12:12:35;;;;;;;19.42;6.70;;;6.80;99.90;;;;;;4890370;29;20509;-76
2023/01/10 12:15:21;;;;;;;8.18;5.40;;;6.80;99.90;;;;;;4909383;29;20430;-76
2023/01/10 12:17:46;;;;;;;13.57;5.13;;;6.80;99.90;;;;;;4906765;29;20044;-76
2023/01/10 12:20:13;;;;;;;16.75;6.55;;;6.80;99.90;;;;;;4889055;29;20506;-77
2023/01/10 12:22:42;;;;;;;11.02;5.63;;;6.80;99.90;;;;;;4888938;29;20055;-77
2023/01/10 12:25:14;;;;;;;30.10;6.00;;;6.80;99.90;;;;;;4955142;28;20852;-76
2023/01/10 12:27:41;;;;;;;10.68;5.18;;;6.80;99.90;;;;;;4889138;29;20048;-75
2023/01/10 12:30:12;;;;;;;12.07;4.93;;;6.80;99.90;;;;;;4906007;29;20507;-78
2023/01/10 12:32:43;;;;;;;12.48;4.75;;;6.80;99.90;;;;;;4902418;28;20486;-78
2023/01/10 12:35:36;;;;;;;20.27;6.88;;;6.80;99.90;;;;;;4908610;29;20052;-77
2023/01/10 12:38:21;;;;;;;15.45;6.40;;;6.80;99.90;;;;;;4888342;28;20099;-77
2023/01/10 12:40:53;;;;;;;21.23;7.95;;;6.80;99.90;;;;;;4906487;28;20559;-78
2023/01/10 12:46:22;;;;;;;21.45;7.70;;;6.80;99.90;;;;;;4906872;29;20201;-77
2023/01/10 12:49:07;;;;;;;17.42;6.05;;;6.80;99.90;;;;;;4970735;28;20127;-77
2023/01/10 12:51:34;;;;;;;14.45;5.57;;;6.80;99.90;;;;;;4911435;28;20038;-78
2023/01/10 12:54:05;;;;;;;20.45;7.38;;;6.80;99.90;;;;;;4956249;28;20131;-77
2023/01/10 12:56:31;;;;;;;21.10;6.30;;;6.70;99.90;;;;;;4906228;28;20054;-77
2023/01/10 12:59:06;;;;;;;16.85;7.32;;;6.80;99.90;;;;;;4919982;28;20032;-78
2023/01/10 13:01:35;;;;;;;14.32;5.43;;;6.80;99.90;;;;;;4908581;29;20105;-78
2023/01/10 13:04:10;;;;;;;12.88;5.35;;;6.70;99.90;;;;;;4905396;28;20668;-78
2023/01/10 13:06:42;;;;;;;16.23;6.90;;;6.70;99.90;;;;;;4905222;29;20062;-77
2023/01/10 13:09:14;;;;;;;13.45;7.15;;;6.70;99.90;;;;;;4905679;29;20048;-75
2023/01/10 13:11:52;;;;;;;12.32;6.10;;;6.70;99.90;;;;;;4887208;28;20055;-77
2023/01/10 13:14:23;;;;;;;10.57;5.40;;;6.70;99.90;;;;;;4886382;29;20062;-75
2023/01/10 13:16:54;;;;;;;14.35;7.07;;;6.70;99.90;;;;;;4893855;28;20394;-77
2023/01/10 13:19:24;;;;;;;15.73;5.75;;;6.60;99.90;;;;;;4917442;29;20048;-76
2023/01/10 13:22:05;;;;;;;16.67;4.95;;;6.60;99.90;;;;;;4904149;29;20051;-77
2023/01/10 13:24:32;;;;;;;13.77;4.88;;;6.60;99.90;;;;;;4904534;28;20616;-76